Historyczne dane pomiarowe

Dodano dane terminowe – wersja testowa.

Dane z okresu 1951-2019

Wersja bazy: 1.34 [2019-03-16, lista zmian], aktualizacja planowana na 2019-04-15

Dane meteo z obszaru Polski uzyskane na podstawie danych udostępnionych przez Instytut Meteorologii i Gospodarki Wodnej – Państwowy Instytut Badawczy.

 

Wybierz Datę:    

       

TemperaturaWilgotnośćWiatrCiśnienieOpadyŚniegCzas trwania zjawisk
 Stacja t tx tn tng RH VA  wxwx mslp ppp RRR   cm mm wxwxwxwxwxwxwx
1987-08-14 13.2 20.0 5.5 3.0 82.8- 6.3 2.3---- 2.9------------
1987-08-13 13.1 18.6 4.6 1.9 79.0- 4.0 2.7---- 0.0------------
1987-08-12 11.7 17.3 8.0 4.2 83.8- 4.3 2.7---- 1.3------------
1987-08-11 13.0 16.4 10.9 7.5 83.8- 6.3 4.0---- 0.6------------
1987-08-10 15.1 19.8 13.5 11.5 86.3- 5.3 3.3---- 0.2------------
1987-08-09 16.8 22.9 9.5 6.1 72.0- 4.3 1.3---- 1.0------------
1987-08-08 14.5 19.7 9.4 5.6 74.3- 2.0 1.7---- 0.0------------
1987-08-07 11.2 16.8 6.3 2.5 79.8- 6.0 3.3---- 3.4------------
1987-08-06 11.3 14.5 8.9 5.8 83.3- 5.3 4.7---- 0.6------------
1987-08-05 11.9 17.9 6.9 5.2 85.3- 6.3 1.3---- 0.2------------
1987-08-04 15.0 19.4 11.1 8.4 81.0- 6.0 4.0---- 3.4------------
1987-08-03 15.1 19.3 9.0 5.8 81.8- 4.3 3.3---- 0.0------------
1987-08-02 14.5 19.1 12.5 10.9 81.8- 7.7 2.7---- 3.1------------
1987-08-01 15.9 21.7 9.9 6.0 81.0- 6.3 3.3---- 1.0------------
1987-07-31 15.1 21.3 13.9 11.6 94.0- 5.7 1.7---- 2.6------------
1987-07-30 18.5 24.3 12.6 10.1 74.5- 3.3 1.3---- 1.5------------
1987-07-29 14.8 18.8 11.4 9.9 77.0- 7.0 3.0---- 0.0------------
1987-07-28 13.1 16.4 12.5 11.4 88.8- 8.0 4.0---- 2.3------------
1987-07-27 12.5 16.4 8.0 5.9 76.8- 5.7 4.0---- 2.0------------
1987-07-26 13.0 18.0 11.0 10.5 94.5- 7.7 1.3---- 8.3------------
1987-07-25 18.5 23.9 13.5 10.5 88.3- 7.3 2.7---- 10.1------------
1987-07-24 21.0 27.4 17.0 14.5 79.3- 6.0 2.7---- 0.0------------
1987-07-23 19.8 26.8 10.9 8.0 79.3- 2.7 1.0---- 0.6------------
1987-07-22 19.4 24.3 17.5 15.0 86.8- 5.0 1.7---- 0.0------------
1987-07-21 19.5 24.9 12.3 9.9 80.5- 4.7 1.7---- 0.0------------
1987-07-20 20.2 23.9 18.6 17.0 81.8- 3.7 2.7---- 0.0------------
1987-07-19 22.3 28.4 19.4 19.3 83.0- 4.0 2.7---- 1.9------------
1987-07-18 24.0 30.3 16.5 14.2 77.3- 2.7 1.0---- 0.5------------
1987-07-17 21.3 28.5 15.5 12.5 84.5- 7.7 3.3---- 0.9------------
1987-07-16 19.8 26.4 11.4 8.0 74.3- 3.3 2.0---- 1.4------------
1987-07-15 17.0 22.3 8.0 5.1 72.0- 1.0 3.3---- 0.0------------
1987-07-14 16.3 21.5 9.5 6.5 75.0- 1.3 2.7---- 0.0------------
1987-07-13 18.8 23.3 14.6 13.0 79.5- 5.3 2.7---- 0.0------------
1987-07-12 19.5 28.4 11.5 9.0 72.8- 4.7 4.3---- 9.8------------
1987-07-11 16.8 23.9 8.3 5.4 74.3- 1.3 2.0---- 0.0------------
1987-07-10 15.1 19.4 10.0 6.6 76.5- 3.3 3.3---- 0.0------------
1987-07-09 16.2 24.8 14.3 12.9 94.8- 8.0 2.3---- 10.6------------
1987-07-08 21.4 28.8 10.5 7.3 66.3- 1.0 2.0---- 0.4------------
1987-07-07 18.8 25.5 8.4 4.5 65.0- 0.0 2.7---- 0.0------------
1987-07-06 18.2 23.0 10.0 6.2 66.8- 0.3 2.3---- 0.0------------
1987-07-05 16.4 20.1 12.8 9.0 79.0- 4.7 3.7---- 0.1------------
1987-07-04 18.9 22.8 15.0 11.0 78.3- 5.3 2.7---- 0.0------------
1987-07-03 18.8 22.1 16.6 15.8 79.0- 8.0 2.7---- 0.0------------
1987-07-02 18.8 27.7 16.9 16.4 86.5- 8.0 2.7---- 0.0------------
1987-07-01 25.0 30.8 17.0 15.0 73.3- 1.3 1.3---- 0.0------------
1987-06-30 23.2 29.4 14.5 12.0 75.5- 0.0 1.3---- 0.0------------
1987-06-29 21.1 25.4 14.9 11.5 77.8- 3.7 1.3---- 0.0------------
1987-06-28 19.1 25.8 11.0 8.5 77.0- 5.0 2.0---- 0.0------------
1987-06-27 18.2 22.5 15.0 12.0 85.0- 7.0 2.3---- 0.0------------
1987-06-26 16.9 24.3 6.5 3.9 72.0- 5.3 2.7---- 5.9------------
1987-06-25 15.0 18.5 13.3 11.0 80.5- 6.7 3.3---- 0.0------------
1987-06-24 16.4 20.9 11.9 8.8 77.5- 4.3 2.0---- 1.9------------
1987-06-23 16.1 20.8 13.6 13.5 80.0- 6.7 2.0---- 0.6------------
1987-06-22 16.2 23.0 12.7 9.6 81.3- 6.3 4.0---- 0.0------------
1987-06-21 18.3 23.5 9.4 5.9 68.0- 3.0 2.3---- 0.0------------
1987-06-20 15.5 22.2 6.4 3.0 68.8- 3.7 2.7---- 0.0------------
1987-06-19 12.8 17.5 7.5 4.4 71.5- 1.7 2.0---- 0.0------------
1987-06-18 10.5 15.0 5.4 2.5 84.0- 6.3 4.0---- 0.1------------
1987-06-17 11.6 14.5 8.9 6.0 80.3- 6.3 2.7---- 1.3------------
1987-06-16 14.3 24.9 11.0 11.0 85.5- 7.3 4.3---- 1.2------------
364.6 ms

 

Źródłem pochodzenia danych jest Instytut Meteorologii i Gospodarki Wodnej – Państwowy Instytut Badawczy. Dane Instytutu Meteorologii i Gospodarki Wodnej – Państwowego Instytutu Badawczego zostały przetworzone.

Dane źródłowe można odnaleźć na stronie https://dane.imgw.pl